sensor_id;sensor_type;location;lat;lon;timestamp;P1;durP1;ratioP1;P2;durP2;ratioP2
21299;SDS011;10809;49.476;11.016;2022-11-27T00:00:15;44.80;;;15.33;;
21299;SDS011;10809;49.476;11.016;2022-11-27T00:02:46;35.37;;;13.83;;
21299;SDS011;10809;49.476;11.016;2022-11-27T00:05:16;30.07;;;13.37;;
21299;SDS011;10809;49.476;11.016;2022-11-27T00:07:47;29.20;;;14.50;;
21299;SDS011;10809;49.476;11.016;2022-11-27T00:10:17;23.93;;;14.73;;
21299;SDS011;10809;49.476;11.016;2022-11-27T00:12:48;23.87;;;13.97;;
21299;SDS011;10809;49.476;11.016;2022-11-27T00:15:18;31.53;;;14.90;;
21299;SDS011;10809;49.476;11.016;2022-11-27T00:17:48;35.57;;;14.83;;
21299;SDS011;10809;49.476;11.016;2022-11-27T00:20:19;65.73;;;14.43;;
21299;SDS011;10809;49.476;11.016;2022-11-27T00:22:49;28.83;;;11.60;;
21299;SDS011;10809;49.476;11.016;2022-11-27T00:25:19;26.73;;;10.67;;
21299;SDS011;10809;49.476;11.016;2022-11-27T00:27:50;32.03;;;10.23;;
21299;SDS011;10809;49.476;11.016;2022-11-27T00:30:20;34.60;;;9.80;;
21299;SDS011;10809;49.476;11.016;2022-11-27T00:32:51;18.73;;;9.73;;
21299;SDS011;10809;49.476;11.016;2022-11-27T00:35:21;27.07;;;9.57;;
21299;SDS011;10809;49.476;11.016;2022-11-27T00:37:51;23.80;;;10.23;;
21299;SDS011;10809;49.476;11.016;2022-11-27T00:40:22;29.77;;;10.70;;
21299;SDS011;10809;49.476;11.016;2022-11-27T00:42:52;21.97;;;9.90;;
21299;SDS011;10809;49.476;11.016;2022-11-27T00:45:22;22.00;;;10.00;;
21299;SDS011;10809;49.476;11.016;2022-11-27T00:47:53;30.57;;;9.97;;
21299;SDS011;10809;49.476;11.016;2022-11-27T00:50:23;16.53;;;9.17;;
21299;SDS011;10809;49.476;11.016;2022-11-27T00:52:53;15.60;;;8.23;;
21299;SDS011;10809;49.476;11.016;2022-11-27T00:55:24;25.77;;;8.80;;
21299;SDS011;10809;49.476;11.016;2022-11-27T00:57:54;11.87;;;8.00;;
21299;SDS011;10809;49.476;11.016;2022-11-27T01:00:25;13.73;;;7.70;;
21299;SDS011;10809;49.476;11.016;2022-11-27T01:02:55;16.30;;;8.37;;
21299;SDS011;10809;49.476;11.016;2022-11-27T01:05:25;14.13;;;7.83;;
21299;SDS011;10809;49.476;11.016;2022-11-27T01:07:56;25.73;;;8.07;;
21299;SDS011;10809;49.476;11.016;2022-11-27T01:10:26;13.30;;;7.23;;
21299;SDS011;10809;49.476;11.016;2022-11-27T01:12:56;18.33;;;7.53;;
21299;SDS011;10809;49.476;11.016;2022-11-27T01:15:27;13.80;;;7.47;;
21299;SDS011;10809;49.476;11.016;2022-11-27T01:17:57;11.63;;;7.07;;
21299;SDS011;10809;49.476;11.016;2022-11-27T01:20:28;14.57;;;8.00;;
21299;SDS011;10809;49.476;11.016;2022-11-27T01:22:58;12.70;;;7.27;;
21299;SDS011;10809;49.476;11.016;2022-11-27T01:25:28;14.00;;;7.20;;
21299;SDS011;10809;49.476;11.016;2022-11-27T01:27:59;11.43;;;6.90;;
21299;SDS011;10809;49.476;11.016;2022-11-27T01:30:29;9.77;;;6.73;;
21299;SDS011;10809;49.476;11.016;2022-11-27T01:33:00;11.37;;;7.00;;
21299;SDS011;10809;49.476;11.016;2022-11-27T01:35:30;10.83;;;7.03;;
21299;SDS011;10809;49.476;11.016;2022-11-27T01:38:00;13.80;;;7.10;;
21299;SDS011;10809;49.476;11.016;2022-11-27T01:40:31;12.00;;;7.20;;
21299;SDS011;10809;49.476;11.016;2022-11-27T01:43:02;11.20;;;7.10;;
21299;SDS011;10809;49.476;11.016;2022-11-27T01:45:32;9.77;;;6.53;;
21299;SDS011;10809;49.476;11.016;2022-11-27T01:48:03;8.43;;;6.03;;
21299;SDS011;10809;49.476;11.016;2022-11-27T01:50:34;14.67;;;5.73;;
21299;SDS011;10809;49.476;11.016;2022-11-27T01:53:17;8.70;;;6.17;;
21299;SDS011;10809;49.476;11.016;2022-11-27T01:55:49;15.47;;;5.70;;
21299;SDS011;10809;49.476;11.016;2022-11-27T01:58:25;11.43;;;6.30;;
21299;SDS011;10809;49.476;11.016;2022-11-27T02:00:58;9.53;;;6.47;;
21299;SDS011;10809;49.476;11.016;2022-11-27T02:03:29;11.90;;;5.50;;
21299;SDS011;10809;49.476;11.016;2022-11-27T02:05:59;8.00;;;5.73;;
21299;SDS011;10809;49.476;11.016;2022-11-27T02:08:30;8.87;;;6.27;;
21299;SDS011;10809;49.476;11.016;2022-11-27T02:11:05;13.33;;;6.17;;
21299;SDS011;10809;49.476;11.016;2022-11-27T02:13:46;9.30;;;5.80;;
21299;SDS011;10809;49.476;11.016;2022-11-27T02:16:28;8.37;;;5.80;;
21299;SDS011;10809;49.476;11.016;2022-11-27T02:22:03;9.43;;;5.70;;
21299;SDS011;10809;49.476;11.016;2022-11-27T02:30:01;8.60;;;6.10;;
21299;SDS011;10809;49.476;11.016;2022-11-27T02:32:39;8.03;;;5.80;;
21299;SDS011;10809;49.476;11.016;2022-11-27T02:35:57;9.80;;;5.90;;
21299;SDS011;10809;49.476;11.016;2022-11-27T02:38:14;8.37;;;5.40;;
21299;SDS011;10809;49.476;11.016;2022-11-27T02:43:24;13.87;;;5.30;;
21299;SDS011;10809;49.476;11.016;2022-11-27T02:46:02;10.47;;;6.20;;
21299;SDS011;10809;49.476;11.016;2022-11-27T02:48:48;11.40;;;5.37;;
21299;SDS011;10809;49.476;11.016;2022-11-27T02:51:22;7.73;;;5.30;;
21299;SDS011;10809;49.476;11.016;2022-11-27T02:53:58;7.67;;;5.43;;
21299;SDS011;10809;49.476;11.016;2022-11-27T02:56:32;9.23;;;6.40;;
21299;SDS011;10809;49.476;11.016;2022-11-27T02:59:05;9.97;;;5.23;;
21299;SDS011;10809;49.476;11.016;2022-11-27T03:01:48;7.97;;;5.40;;
21299;SDS011;10809;49.476;11.016;2022-11-27T03:04:26;7.73;;;5.27;;
21299;SDS011;10809;49.476;11.016;2022-11-27T03:07:08;7.83;;;5.03;;
21299;SDS011;10809;49.476;11.016;2022-11-27T03:09:47;10.77;;;5.60;;
21299;SDS011;10809;49.476;11.016;2022-11-27T03:12:21;8.17;;;4.60;;
21299;SDS011;10809;49.476;11.016;2022-11-27T03:14:51;11.13;;;5.57;;
21299;SDS011;10809;49.476;11.016;2022-11-27T03:17:34;10.93;;;5.03;;
21299;SDS011;10809;49.476;11.016;2022-11-27T03:20:08;14.87;;;4.83;;
21299;SDS011;10809;49.476;11.016;2022-11-27T03:22:44;10.13;;;5.93;;
21299;SDS011;10809;49.476;11.016;2022-11-27T03:25:14;7.93;;;5.30;;
21299;SDS011;10809;49.476;11.016;2022-11-27T03:27:53;8.90;;;5.47;;
21299;SDS011;10809;49.476;11.016;2022-11-27T03:30:27;7.70;;;5.53;;
21299;SDS011;10809;49.476;11.016;2022-11-27T03:32:58;9.20;;;4.90;;
21299;SDS011;10809;49.476;11.016;2022-11-27T03:35:30;7.23;;;5.00;;
21299;SDS011;10809;49.476;11.016;2022-11-27T03:38:01;14.10;;;5.80;;
21299;SDS011;10809;49.476;11.016;2022-11-27T03:40:35;8.77;;;6.33;;
21299;SDS011;10809;49.476;11.016;2022-11-27T03:43:17;9.43;;;5.77;;
21299;SDS011;10809;49.476;11.016;2022-11-27T03:45:59;10.87;;;5.47;;
21299;SDS011;10809;49.476;11.016;2022-11-27T03:48:42;10.40;;;5.33;;
21299;SDS011;10809;49.476;11.016;2022-11-27T03:51:48;17.97;;;6.00;;
21299;SDS011;10809;49.476;11.016;2022-11-27T03:54:30;10.60;;;6.07;;
21299;SDS011;10809;49.476;11.016;2022-11-27T03:57:14;10.07;;;5.90;;
21299;SDS011;10809;49.476;11.016;2022-11-27T03:59:51;13.57;;;6.20;;
21299;SDS011;10809;49.476;11.016;2022-11-27T04:02:30;10.90;;;5.47;;
21299;SDS011;10809;49.476;11.016;2022-11-27T04:05:09;34.90;;;6.70;;
21299;SDS011;10809;49.476;11.016;2022-11-27T04:07:40;13.63;;;6.17;;
21299;SDS011;10809;49.476;11.016;2022-11-27T04:10:11;15.33;;;5.63;;
21299;SDS011;10809;49.476;11.016;2022-11-27T04:12:42;7.30;;;5.80;;
21299;SDS011;10809;49.476;11.016;2022-11-27T04:15:13;11.00;;;5.40;;
21299;SDS011;10809;49.476;11.016;2022-11-27T04:17:43;17.97;;;6.30;;
21299;SDS011;10809;49.476;11.016;2022-11-27T04:20:14;14.30;;;5.87;;
21299;SDS011;10809;49.476;11.016;2022-11-27T04:22:44;21.67;;;6.80;;
21299;SDS011;10809;49.476;11.016;2022-11-27T04:25:15;23.37;;;8.10;;
21299;SDS011;10809;49.476;11.016;2022-11-27T04:27:45;13.50;;;5.90;;
21299;SDS011;10809;49.476;11.016;2022-11-27T04:30:16;26.37;;;6.27;;
21299;SDS011;10809;49.476;11.016;2022-11-27T04:32:46;10.57;;;6.23;;
21299;SDS011;10809;49.476;11.016;2022-11-27T04:35:17;9.77;;;6.13;;
21299;SDS011;10809;49.476;11.016;2022-11-27T04:37:47;8.37;;;5.77;;
21299;SDS011;10809;49.476;11.016;2022-11-27T04:40:18;8.27;;;5.60;;
21299;SDS011;10809;49.476;11.016;2022-11-27T04:42:48;8.47;;;5.17;;
21299;SDS011;10809;49.476;11.016;2022-11-27T04:45:19;7.20;;;5.27;;
21299;SDS011;10809;49.476;11.016;2022-11-27T04:47:50;10.73;;;6.37;;
21299;SDS011;10809;49.476;11.016;2022-11-27T04:50:20;9.03;;;5.20;;
21299;SDS011;10809;49.476;11.016;2022-11-27T04:52:50;10.10;;;5.93;;
21299;SDS011;10809;49.476;11.016;2022-11-27T04:55:21;12.70;;;7.13;;
21299;SDS011;10809;49.476;11.016;2022-11-27T04:57:51;10.47;;;6.87;;
21299;SDS011;10809;49.476;11.016;2022-11-27T05:00:22;11.93;;;7.20;;
21299;SDS011;10809;49.476;11.016;2022-11-27T05:02:52;9.40;;;6.10;;
21299;SDS011;10809;49.476;11.016;2022-11-27T05:05:23;7.63;;;5.60;;
21299;SDS011;10809;49.476;11.016;2022-11-27T05:07:53;5.50;;;4.67;;
21299;SDS011;10809;49.476;11.016;2022-11-27T05:10:23;6.60;;;4.93;;
21299;SDS011;10809;49.476;11.016;2022-11-27T05:12:54;6.23;;;4.30;;
21299;SDS011;10809;49.476;11.016;2022-11-27T05:15:24;6.40;;;4.10;;
21299;SDS011;10809;49.476;11.016;2022-11-27T05:17:54;6.43;;;4.83;;
21299;SDS011;10809;49.476;11.016;2022-11-27T05:20:25;8.33;;;4.93;;
21299;SDS011;10809;49.476;11.016;2022-11-27T05:22:55;7.90;;;5.37;;
21299;SDS011;10809;49.476;11.016;2022-11-27T05:25:25;5.50;;;4.30;;
21299;SDS011;10809;49.476;11.016;2022-11-27T05:27:56;6.60;;;4.90;;
21299;SDS011;10809;49.476;11.016;2022-11-27T05:30:26;5.97;;;4.33;;
21299;SDS011;10809;49.476;11.016;2022-11-27T05:32:56;7.27;;;5.00;;
21299;SDS011;10809;49.476;11.016;2022-11-27T05:35:27;8.93;;;4.90;;
21299;SDS011;10809;49.476;11.016;2022-11-27T05:37:57;8.17;;;4.50;;
21299;SDS011;10809;49.476;11.016;2022-11-27T05:40:27;6.50;;;3.73;;
21299;SDS011;10809;49.476;11.016;2022-11-27T05:42:58;17.33;;;4.57;;
21299;SDS011;10809;49.476;11.016;2022-11-27T05:45:29;5.60;;;4.40;;
21299;SDS011;10809;49.476;11.016;2022-11-27T05:47:59;18.13;;;4.27;;
21299;SDS011;10809;49.476;11.016;2022-11-27T05:50:29;15.17;;;5.93;;
21299;SDS011;10809;49.476;11.016;2022-11-27T05:53:02;8.07;;;4.40;;
21299;SDS011;10809;49.476;11.016;2022-11-27T05:55:32;13.60;;;4.70;;
21299;SDS011;10809;49.476;11.016;2022-11-27T05:58:03;8.27;;;4.67;;
21299;SDS011;10809;49.476;11.016;2022-11-27T06:00:33;11.07;;;4.43;;
21299;SDS011;10809;49.476;11.016;2022-11-27T06:03:03;16.80;;;5.10;;
21299;SDS011;10809;49.476;11.016;2022-11-27T06:05:37;10.77;;;4.70;;
21299;SDS011;10809;49.476;11.016;2022-11-27T06:08:08;9.33;;;4.97;;
21299;SDS011;10809;49.476;11.016;2022-11-27T06:10:39;5.80;;;3.97;;
21299;SDS011;10809;49.476;11.016;2022-11-27T06:13:09;9.73;;;4.47;;
21299;SDS011;10809;49.476;11.016;2022-11-27T06:15:40;6.97;;;4.30;;
21299;SDS011;10809;49.476;11.016;2022-11-27T06:18:11;9.20;;;4.50;;
21299;SDS011;10809;49.476;11.016;2022-11-27T06:20:42;12.60;;;5.00;;
21299;SDS011;10809;49.476;11.016;2022-11-27T06:23:12;8.77;;;4.83;;
21299;SDS011;10809;49.476;11.016;2022-11-27T06:25:42;11.70;;;4.33;;
21299;SDS011;10809;49.476;11.016;2022-11-27T06:28:13;18.63;;;4.40;;
21299;SDS011;10809;49.476;11.016;2022-11-27T06:30:43;13.07;;;4.83;;
21299;SDS011;10809;49.476;11.016;2022-11-27T06:33:13;14.50;;;4.90;;
21299;SDS011;10809;49.476;11.016;2022-11-27T06:35:44;10.63;;;4.67;;
21299;SDS011;10809;49.476;11.016;2022-11-27T06:38:14;11.83;;;5.20;;
21299;SDS011;10809;49.476;11.016;2022-11-27T06:40:44;6.93;;;4.50;;
21299;SDS011;10809;49.476;11.016;2022-11-27T06:43:15;15.10;;;4.50;;
21299;SDS011;10809;49.476;11.016;2022-11-27T06:45:53;7.07;;;4.73;;
21299;SDS011;10809;49.476;11.016;2022-11-27T06:48:24;8.73;;;5.30;;
21299;SDS011;10809;49.476;11.016;2022-11-27T06:50:59;8.33;;;5.73;;
21299;SDS011;10809;49.476;11.016;2022-11-27T06:53:31;13.20;;;4.57;;
21299;SDS011;10809;49.476;11.016;2022-11-27T06:56:05;10.27;;;5.20;;
21299;SDS011;10809;49.476;11.016;2022-11-27T06:58:38;7.50;;;4.80;;
21299;SDS011;10809;49.476;11.016;2022-11-27T07:01:10;8.10;;;4.97;;
21299;SDS011;10809;49.476;11.016;2022-11-27T07:03:43;11.87;;;4.73;;
21299;SDS011;10809;49.476;11.016;2022-11-27T07:06:16;7.37;;;4.90;;
21299;SDS011;10809;49.476;11.016;2022-11-27T07:08:49;7.13;;;4.27;;
21299;SDS011;10809;49.476;11.016;2022-11-27T07:11:20;14.57;;;4.97;;
21299;SDS011;10809;49.476;11.016;2022-11-27T07:13:53;7.30;;;4.63;;
21299;SDS011;10809;49.476;11.016;2022-11-27T07:16:26;14.80;;;5.60;;
21299;SDS011;10809;49.476;11.016;2022-11-27T07:18:59;12.73;;;5.57;;
21299;SDS011;10809;49.476;11.016;2022-11-27T07:21:31;8.93;;;5.23;;
21299;SDS011;10809;49.476;11.016;2022-11-27T07:24:02;21.40;;;6.33;;
21299;SDS011;10809;49.476;11.016;2022-11-27T07:26:33;12.10;;;5.03;;
21299;SDS011;10809;49.476;11.016;2022-11-27T07:29:03;9.67;;;5.70;;
21299;SDS011;10809;49.476;11.016;2022-11-27T07:31:34;12.97;;;7.07;;
21299;SDS011;10809;49.476;11.016;2022-11-27T07:34:04;15.40;;;5.20;;
21299;SDS011;10809;49.476;11.016;2022-11-27T07:36:35;20.00;;;6.27;;
21299;SDS011;10809;49.476;11.016;2022-11-27T07:39:05;16.90;;;5.37;;
21299;SDS011;10809;49.476;11.016;2022-11-27T07:41:35;22.97;;;6.50;;
21299;SDS011;10809;49.476;11.016;2022-11-27T07:44:06;11.77;;;5.40;;
21299;SDS011;10809;49.476;11.016;2022-11-27T07:46:36;16.27;;;6.63;;
21299;SDS011;10809;49.476;11.016;2022-11-27T07:49:07;14.93;;;6.40;;
21299;SDS011;10809;49.476;11.016;2022-11-27T07:51:37;17.40;;;6.23;;
21299;SDS011;10809;49.476;11.016;2022-11-27T07:54:08;13.30;;;5.90;;
21299;SDS011;10809;49.476;11.016;2022-11-27T07:56:38;18.77;;;7.33;;
21299;SDS011;10809;49.476;11.016;2022-11-27T07:59:09;22.33;;;6.37;;
21299;SDS011;10809;49.476;11.016;2022-11-27T08:01:39;14.50;;;6.50;;
21299;SDS011;10809;49.476;11.016;2022-11-27T08:04:09;21.57;;;7.60;;
21299;SDS011;10809;49.476;11.016;2022-11-27T08:06:40;17.13;;;7.00;;
21299;SDS011;10809;49.476;11.016;2022-11-27T08:09:10;15.73;;;6.87;;
21299;SDS011;10809;49.476;11.016;2022-11-27T08:11:40;12.93;;;6.53;;
21299;SDS011;10809;49.476;11.016;2022-11-27T08:14:11;19.30;;;7.57;;
21299;SDS011;10809;49.476;11.016;2022-11-27T08:16:43;20.47;;;7.80;;
21299;SDS011;10809;49.476;11.016;2022-11-27T08:19:13;23.83;;;6.93;;
21299;SDS011;10809;49.476;11.016;2022-11-27T08:21:44;15.17;;;6.47;;
21299;SDS011;10809;49.476;11.016;2022-11-27T08:24:14;14.23;;;6.20;;
21299;SDS011;10809;49.476;11.016;2022-11-27T08:26:44;13.80;;;5.87;;
21299;SDS011;10809;49.476;11.016;2022-11-27T08:29:15;10.47;;;5.30;;
21299;SDS011;10809;49.476;11.016;2022-11-27T08:31:45;9.07;;;5.07;;
21299;SDS011;10809;49.476;11.016;2022-11-27T08:34:15;9.27;;;4.70;;
21299;SDS011;10809;49.476;11.016;2022-11-27T08:36:46;10.07;;;4.60;;
21299;SDS011;10809;49.476;11.016;2022-11-27T08:39:16;7.27;;;4.53;;
21299;SDS011;10809;49.476;11.016;2022-11-27T08:41:46;10.13;;;5.20;;
21299;SDS011;10809;49.476;11.016;2022-11-27T08:44:17;10.07;;;4.93;;
21299;SDS011;10809;49.476;11.016;2022-11-27T08:46:47;9.13;;;5.10;;
21299;SDS011;10809;49.476;11.016;2022-11-27T08:49:18;5.83;;;3.40;;
21299;SDS011;10809;49.476;11.016;2022-11-27T08:51:48;5.57;;;3.50;;
21299;SDS011;10809;49.476;11.016;2022-11-27T08:54:18;11.73;;;5.33;;
21299;SDS011;10809;49.476;11.016;2022-11-27T08:56:50;9.30;;;5.10;;
21299;SDS011;10809;49.476;11.016;2022-11-27T08:59:21;10.33;;;4.73;;
21299;SDS011;10809;49.476;11.016;2022-11-27T09:01:51;10.27;;;5.20;;
21299;SDS011;10809;49.476;11.016;2022-11-27T09:04:22;8.33;;;5.10;;
21299;SDS011;10809;49.476;11.016;2022-11-27T09:06:52;7.37;;;4.23;;
21299;SDS011;10809;49.476;11.016;2022-11-27T09:09:22;11.33;;;4.50;;
21299;SDS011;10809;49.476;11.016;2022-11-27T09:11:53;7.50;;;4.60;;
21299;SDS011;10809;49.476;11.016;2022-11-27T09:14:24;8.17;;;4.67;;
21299;SDS011;10809;49.476;11.016;2022-11-27T09:16:54;7.83;;;4.57;;
21299;SDS011;10809;49.476;11.016;2022-11-27T09:19:24;7.83;;;4.87;;
21299;SDS011;10809;49.476;11.016;2022-11-27T09:21:55;6.40;;;3.83;;
21299;SDS011;10809;49.476;11.016;2022-11-27T09:24:25;7.90;;;4.67;;
21299;SDS011;10809;49.476;11.016;2022-11-27T09:26:56;6.87;;;3.80;;
21299;SDS011;10809;49.476;11.016;2022-11-27T09:29:26;5.87;;;4.00;;
21299;SDS011;10809;49.476;11.016;2022-11-27T09:31:56;6.73;;;3.90;;
21299;SDS011;10809;49.476;11.016;2022-11-27T09:34:27;6.30;;;4.20;;
21299;SDS011;10809;49.476;11.016;2022-11-27T09:36:57;8.73;;;4.20;;
21299;SDS011;10809;49.476;11.016;2022-11-27T09:39:28;8.80;;;4.23;;
21299;SDS011;10809;49.476;11.016;2022-11-27T09:42:03;7.23;;;4.40;;
21299;SDS011;10809;49.476;11.016;2022-11-27T09:47:25;9.20;;;4.53;;
21299;SDS011;10809;49.476;11.016;2022-11-27T09:50:09;16.83;;;4.20;;
21299;SDS011;10809;49.476;11.016;2022-11-27T09:52:53;8.77;;;4.40;;
21299;SDS011;10809;49.476;11.016;2022-11-27T09:55:35;8.20;;;4.40;;
21299;SDS011;10809;49.476;11.016;2022-11-27T10:00:49;8.03;;;4.60;;
21299;SDS011;10809;49.476;11.016;2022-11-27T10:03:20;7.13;;;4.60;;
21299;SDS011;10809;49.476;11.016;2022-11-27T10:17:19;8.70;;;5.37;;
21299;SDS011;10809;49.476;11.016;2022-11-27T10:20:04;7.83;;;4.47;;
21299;SDS011;10809;49.476;11.016;2022-11-27T10:22:52;7.90;;;4.20;;
21299;SDS011;10809;49.476;11.016;2022-11-27T10:42:46;6.63;;;4.83;;
21299;SDS011;10809;49.476;11.016;2022-11-27T10:45:30;7.40;;;4.37;;
21299;SDS011;10809;49.476;11.016;2022-11-27T10:48:13;8.07;;;4.67;;
21299;SDS011;10809;49.476;11.016;2022-11-27T10:50:44;7.30;;;4.20;;
21299;SDS011;10809;49.476;11.016;2022-11-27T10:58:59;7.00;;;4.57;;
21299;SDS011;10809;49.476;11.016;2022-11-27T11:01:47;8.43;;;5.50;;
21299;SDS011;10809;49.476;11.016;2022-11-27T11:04:26;6.87;;;4.63;;
21299;SDS011;10809;49.476;11.016;2022-11-27T11:06:58;8.13;;;5.10;;
21299;SDS011;10809;49.476;11.016;2022-11-27T11:09:32;6.90;;;4.67;;
21299;SDS011;10809;49.476;11.016;2022-11-27T11:12:05;5.57;;;4.17;;
21299;SDS011;10809;49.476;11.016;2022-11-27T11:14:51;6.77;;;4.23;;
21299;SDS011;10809;49.476;11.016;2022-11-27T11:17:25;8.20;;;5.00;;
21299;SDS011;10809;49.476;11.016;2022-11-27T11:19:56;6.83;;;5.07;;
21299;SDS011;10809;49.476;11.016;2022-11-27T11:22:26;8.43;;;5.27;;
21299;SDS011;10809;49.476;11.016;2022-11-27T11:24:57;11.20;;;4.83;;
21299;SDS011;10809;49.476;11.016;2022-11-27T11:27:28;7.60;;;4.63;;
21299;SDS011;10809;49.476;11.016;2022-11-27T11:30:02;6.80;;;4.70;;
21299;SDS011;10809;49.476;11.016;2022-11-27T11:32:37;6.97;;;4.40;;
21299;SDS011;10809;49.476;11.016;2022-11-27T11:35:22;6.33;;;4.83;;
21299;SDS011;10809;49.476;11.016;2022-11-27T11:37:56;8.00;;;4.37;;
21299;SDS011;10809;49.476;11.016;2022-11-27T11:40:34;11.90;;;5.40;;
21299;SDS011;10809;49.476;11.016;2022-11-27T11:43:20;5.83;;;4.33;;
21299;SDS011;10809;49.476;11.016;2022-11-27T11:46:02;5.90;;;4.07;;
21299;SDS011;10809;49.476;11.016;2022-11-27T11:48:36;8.77;;;4.80;;
21299;SDS011;10809;49.476;11.016;2022-11-27T11:51:10;5.53;;;4.00;;
21299;SDS011;10809;49.476;11.016;2022-11-27T11:53:49;6.87;;;4.77;;
21299;SDS011;10809;49.476;11.016;2022-11-27T11:56:34;7.03;;;4.20;;
21299;SDS011;10809;49.476;11.016;2022-11-27T11:59:55;5.93;;;4.33;;
21299;SDS011;10809;49.476;11.016;2022-11-27T12:08:03;5.37;;;3.80;;
21299;SDS011;10809;49.476;11.016;2022-11-27T12:19:30;7.57;;;5.20;;
21299;SDS011;10809;49.476;11.016;2022-11-27T12:25:13;8.30;;;4.93;;
21299;SDS011;10809;49.476;11.016;2022-11-27T12:28:17;7.93;;;4.60;;
21299;SDS011;10809;49.476;11.016;2022-11-27T12:37:23;7.33;;;4.43;;
21299;SDS011;10809;49.476;11.016;2022-11-27T12:45:46;8.97;;;4.80;;
21299;SDS011;10809;49.476;11.016;2022-11-27T12:48:21;7.23;;;4.83;;
21299;SDS011;10809;49.476;11.016;2022-11-27T12:51:01;10.07;;;5.50;;
21299;SDS011;10809;49.476;11.016;2022-11-27T12:53:38;9.80;;;5.47;;
21299;SDS011;10809;49.476;11.016;2022-11-27T12:59:18;7.30;;;4.90;;
21299;SDS011;10809;49.476;11.016;2022-11-27T13:01:58;8.03;;;5.40;;
21299;SDS011;10809;49.476;11.016;2022-11-27T13:07:51;9.37;;;5.20;;
21299;SDS011;10809;49.476;11.016;2022-11-27T13:10:30;8.57;;;4.93;;
21299;SDS011;10809;49.476;11.016;2022-11-27T13:13:05;6.97;;;4.67;;
21299;SDS011;10809;49.476;11.016;2022-11-27T13:16:24;6.60;;;4.73;;
21299;SDS011;10809;49.476;11.016;2022-11-27T13:18:40;6.90;;;4.83;;
21299;SDS011;10809;49.476;11.016;2022-11-27T13:21:18;7.27;;;5.07;;
21299;SDS011;10809;49.476;11.016;2022-11-27T13:23:52;7.23;;;4.87;;
21299;SDS011;10809;49.476;11.016;2022-11-27T13:26:34;7.40;;;5.00;;
21299;SDS011;10809;49.476;11.016;2022-11-27T13:32:28;9.23;;;4.63;;
21299;SDS011;10809;49.476;11.016;2022-11-27T13:35:04;6.67;;;4.53;;
21299;SDS011;10809;49.476;11.016;2022-11-27T13:37:47;8.87;;;4.73;;
21299;SDS011;10809;49.476;11.016;2022-11-27T13:40:36;6.00;;;4.47;;
21299;SDS011;10809;49.476;11.016;2022-11-27T13:43:26;8.10;;;5.23;;
21299;SDS011;10809;49.476;11.016;2022-11-27T13:46:21;8.47;;;4.80;;
21299;SDS011;10809;49.476;11.016;2022-11-27T13:48:56;5.93;;;4.27;;
21299;SDS011;10809;49.476;11.016;2022-11-27T13:51:36;9.07;;;5.00;;
21299;SDS011;10809;49.476;11.016;2022-11-27T13:54:12;12.23;;;4.97;;
21299;SDS011;10809;49.476;11.016;2022-11-27T13:56:45;9.77;;;6.57;;
21299;SDS011;10809;49.476;11.016;2022-11-27T14:01:58;6.97;;;5.00;;
21299;SDS011;10809;49.476;11.016;2022-11-27T14:04:34;8.10;;;5.20;;
21299;SDS011;10809;49.476;11.016;2022-11-27T14:07:17;7.27;;;5.07;;
21299;SDS011;10809;49.476;11.016;2022-11-27T14:09:51;8.63;;;5.57;;
21299;SDS011;10809;49.476;11.016;2022-11-27T14:15:06;9.43;;;4.83;;
21299;SDS011;10809;49.476;11.016;2022-11-27T14:17:39;6.83;;;4.97;;
21299;SDS011;10809;49.476;11.016;2022-11-27T14:22:46;7.77;;;4.87;;
21299;SDS011;10809;49.476;11.016;2022-11-27T14:25:31;6.77;;;4.80;;
21299;SDS011;10809;49.476;11.016;2022-11-27T14:30:54;10.27;;;5.17;;
21299;SDS011;10809;49.476;11.016;2022-11-27T14:33:27;8.70;;;4.93;;
21299;SDS011;10809;49.476;11.016;2022-11-27T14:36:00;7.10;;;5.10;;
21299;SDS011;10809;49.476;11.016;2022-11-27T14:38:33;9.77;;;5.00;;
21299;SDS011;10809;49.476;11.016;2022-11-27T14:41:14;8.20;;;4.77;;
21299;SDS011;10809;49.476;11.016;2022-11-27T14:46:48;9.50;;;4.93;;
21299;SDS011;10809;49.476;11.016;2022-11-27T14:49:22;9.43;;;6.20;;
21299;SDS011;10809;49.476;11.016;2022-11-27T14:51:59;10.20;;;6.30;;
21299;SDS011;10809;49.476;11.016;2022-11-27T14:54:34;11.87;;;6.97;;
21299;SDS011;10809;49.476;11.016;2022-11-27T14:57:09;13.53;;;8.20;;
21299;SDS011;10809;49.476;11.016;2022-11-27T14:59:47;9.97;;;6.90;;
21299;SDS011;10809;49.476;11.016;2022-11-27T15:02:17;12.07;;;6.57;;
21299;SDS011;10809;49.476;11.016;2022-11-27T15:04:48;8.07;;;5.73;;
21299;SDS011;10809;49.476;11.016;2022-11-27T15:07:20;8.50;;;5.73;;
21299;SDS011;10809;49.476;11.016;2022-11-27T15:09:54;7.83;;;5.67;;
21299;SDS011;10809;49.476;11.016;2022-11-27T15:14:57;8.23;;;5.40;;
21299;SDS011;10809;49.476;11.016;2022-11-27T15:17:32;8.60;;;5.73;;
21299;SDS011;10809;49.476;11.016;2022-11-27T15:20:13;6.70;;;5.13;;
21299;SDS011;10809;49.476;11.016;2022-11-27T15:22:48;8.57;;;5.87;;
21299;SDS011;10809;49.476;11.016;2022-11-27T15:25:34;6.73;;;5.20;;
21299;SDS011;10809;49.476;11.016;2022-11-27T15:30:52;9.30;;;5.70;;
21299;SDS011;10809;49.476;11.016;2022-11-27T15:33:26;9.07;;;5.30;;
21299;SDS011;10809;49.476;11.016;2022-11-27T15:36:13;7.87;;;4.97;;
21299;SDS011;10809;49.476;11.016;2022-11-27T15:38:47;9.40;;;5.53;;
21299;SDS011;10809;49.476;11.016;2022-11-27T15:41:24;8.03;;;5.03;;
21299;SDS011;10809;49.476;11.016;2022-11-27T15:43:56;7.70;;;4.73;;
21299;SDS011;10809;49.476;11.016;2022-11-27T15:46:27;7.60;;;4.83;;
21299;SDS011;10809;49.476;11.016;2022-11-27T15:49:03;6.70;;;4.67;;
21299;SDS011;10809;49.476;11.016;2022-11-27T15:51:38;8.70;;;4.53;;
21299;SDS011;10809;49.476;11.016;2022-11-27T15:54:09;7.10;;;4.83;;
21299;SDS011;10809;49.476;11.016;2022-11-27T15:56:40;7.40;;;5.20;;
21299;SDS011;10809;49.476;11.016;2022-11-27T15:59:11;10.37;;;5.90;;
21299;SDS011;10809;49.476;11.016;2022-11-27T16:01:41;8.97;;;5.73;;
21299;SDS011;10809;49.476;11.016;2022-11-27T16:04:12;8.17;;;5.03;;
21299;SDS011;10809;49.476;11.016;2022-11-27T16:06:43;9.43;;;6.30;;
21299;SDS011;10809;49.476;11.016;2022-11-27T16:09:13;9.90;;;5.90;;
21299;SDS011;10809;49.476;11.016;2022-11-27T16:11:44;8.33;;;6.00;;
21299;SDS011;10809;49.476;11.016;2022-11-27T16:14:14;9.60;;;6.10;;
21299;SDS011;10809;49.476;11.016;2022-11-27T16:16:45;6.93;;;5.10;;
21299;SDS011;10809;49.476;11.016;2022-11-27T16:19:16;7.13;;;5.47;;
21299;SDS011;10809;49.476;11.016;2022-11-27T16:21:46;7.10;;;5.43;;
21299;SDS011;10809;49.476;11.016;2022-11-27T16:24:17;7.80;;;5.13;;
21299;SDS011;10809;49.476;11.016;2022-11-27T16:26:47;6.53;;;5.10;;
21299;SDS011;10809;49.476;11.016;2022-11-27T16:29:17;7.27;;;5.37;;
21299;SDS011;10809;49.476;11.016;2022-11-27T16:31:48;9.47;;;6.07;;
21299;SDS011;10809;49.476;11.016;2022-11-27T16:34:19;8.50;;;6.30;;
21299;SDS011;10809;49.476;11.016;2022-11-27T16:36:51;7.07;;;5.20;;
21299;SDS011;10809;49.476;11.016;2022-11-27T16:39:21;7.30;;;5.37;;
21299;SDS011;10809;49.476;11.016;2022-11-27T16:41:52;10.77;;;5.90;;
21299;SDS011;10809;49.476;11.016;2022-11-27T16:44:23;9.10;;;6.67;;
21299;SDS011;10809;49.476;11.016;2022-11-27T16:46:53;7.80;;;5.43;;
21299;SDS011;10809;49.476;11.016;2022-11-27T16:49:24;7.20;;;5.80;;
21299;SDS011;10809;49.476;11.016;2022-11-27T16:51:54;10.27;;;7.40;;
21299;SDS011;10809;49.476;11.016;2022-11-27T16:54:25;8.77;;;6.30;;